Time;durP1;ratioP1;P1;durP2;ratioP2;P2;SDS_P1;SDS_P2;PMS_P1;PMS_P2;Temp;Humidity;BMP_temperature;BMP_pressure;BME280_temperature;BME280_humidity;BME280_pressure;Samples;Min_cycle;Max_cycle;Signal;HPM_P1;HPM_P2
2021/01/20 06:23:02;;;;;;;47.43;14.20;;;;;;;-22.41;57.07;100539.51;1822374;77;26435;-64
2021/01/20 06:25:32;;;;;;;70.95;22.25;;;;;;;-22.28;57.13;100544.19;1799319;78;21133;-56
2021/01/20 06:28:20;;;;;;;55.50;21.68;;;;;;;-22.25;56.86;100543.46;1792249;78;21171;-56
2021/01/20 06:30:50;;;;;;;52.17;23.98;;;;;;;-22.26;56.92;100543.01;1658019;84;21167;-60
2021/01/20 06:33:20;;;;;;;42.03;17.35;;;;;;;-22.23;57.08;100545.23;1656501;86;21793;-57
2021/01/20 06:35:50;;;;;;;34.95;15.00;;;;;;;-22.11;57.40;100543.62;1657103;86;21666;-58
2021/01/20 06:38:36;;;;;;;31.70;12.25;;;;;;;-21.96;57.54;100544.64;1687532;84;21204;-56
2021/01/20 06:41:13;;;;;;;30.48;11.73;;;;;;;-21.71;57.63;100549.80;1655409;85;21738;-63
2021/01/20 06:43:46;;;;;;;38.53;14.43;;;;;;;-21.32;57.42;100547.16;1647212;85;21868;-57
2021/01/20 06:46:26;;;;;;;32.35;12.90;;;;;;;-21.17;57.08;100546.86;1672496;85;21723;-59
2021/01/20 06:49:01;;;;;;;44.55;12.65;;;;;;;-20.96;56.89;100549.76;1671310;85;21314;-62
2021/01/20 06:51:30;;;;;;;43.70;15.75;;;;;;;-20.72;56.66;100544.84;1669723;85;21167;-58
2021/01/20 06:54:13;;;;;;;45.80;16.50;;;;;;;-20.63;56.24;100551.77;1673578;85;21724;-56
2021/01/20 06:56:49;;;;;;;59.10;20.08;;;;;;;-20.49;56.14;100554.73;1669202;85;21772;-57
2021/01/20 06:59:25;;;;;;;60.20;19.23;;;;;;;-20.36;55.97;100554.76;1673195;85;21206;-57
2021/01/20 07:02:12;;;;;;;59.45;20.08;;;;;;;-20.38;55.69;100562.53;1668756;85;21679;-59
2021/01/20 07:04:43;;;;;;;71.47;22.40;;;;;;;-20.46;55.54;100564.80;1671072;85;21581;-57
2021/01/20 07:07:13;;;;;;;75.15;24.35;;;;;;;-20.51;55.63;100569.59;1676927;85;21308;-56
2021/01/20 07:10:00;;;;;;;70.25;23.55;;;;;;;-20.28;55.73;100567.89;1675660;85;21203;-57
2021/01/20 07:12:31;;;;;;;79.47;28.20;;;;;;;-19.98;55.78;100564.36;1678616;85;21128;-61
2021/01/20 07:15:02;;;;;;;62.58;24.90;;;;;;;-19.84;55.66;100563.97;1672887;85;21643;-56
2021/01/20 07:17:35;;;;;;;79.55;24.30;;;;;;;-19.72;55.65;100567.70;1646010;85;21697;-58
2021/01/20 07:20:06;;;;;;;64.10;23.75;;;;;;;-19.50;55.77;100563.36;1669689;85;21214;-58
2021/01/20 07:22:34;;;;;;;59.08;25.12;;;;;;;-19.29;55.66;100569.44;1676086;85;21360;-61
2021/01/20 07:25:04;;;;;;;71.97;25.75;;;;;;;-18.97;55.66;100571.25;1677648;85;21626;-62
2021/01/20 07:27:32;;;;;;;68.55;27.22;;;;;;;-18.88;55.11;100580.22;1678355;85;21153;-58
2021/01/20 07:30:17;;;;;;;69.42;28.15;;;;;;;-18.97;54.89;100581.21;1674010;84;21159;-60
2021/01/20 07:32:46;;;;;;;67.80;28.80;;;;;;;-18.77;55.16;100586.37;1684417;84;21205;-64
2021/01/20 07:35:24;;;;;;;57.40;24.72;;;;;;;-18.36;55.11;100587.09;1676378;84;21598;-60
2021/01/20 07:38:03;;;;;;;52.78;20.40;;;;;;;-18.19;54.75;100580.04;1682090;84;21190;-57
2021/01/20 07:40:36;;;;;;;57.60;21.77;;;;;;;-18.00;54.84;100581.00;1666353;85;21162;-60
2021/01/20 07:43:05;;;;;;;61.83;21.82;;;;;;;-17.71;54.83;100581.72;1677174;84;21657;-60
2021/01/20 07:45:37;;;;;;;57.50;22.50;;;;;;;-17.43;54.71;100584.06;1683272;84;21175;-59
2021/01/20 07:48:08;;;;;;;52.78;22.15;;;;;;;-17.40;54.26;100576.63;1678395;84;21662;-62
2021/01/20 07:50:43;;;;;;;55.75;22.98;;;;;;;-17.51;54.16;100570.56;1675059;85;21472;-60
2021/01/20 07:53:14;;;;;;;70.42;26.33;;;;;;;-17.45;54.43;100571.95;1656005;86;21168;-60
2021/01/20 07:55:46;;;;;;;66.40;28.57;;;;;;;-17.21;54.52;100577.91;1678912;83;21361;-58
2021/01/20 07:58:14;;;;;;;69.10;29.92;;;;;;;-16.92;54.53;100578.57;1678697;85;21359;-56
2021/01/20 08:00:45;;;;;;;57.60;24.67;;;;;;;-16.61;54.43;100582.95;1675928;85;21645;-57
2021/01/20 08:03:16;;;;;;;58.30;26.33;;;;;;;-16.35;54.31;100579.30;1651935;86;21740;-58
2021/01/20 08:05:45;;;;;;;52.75;24.67;;;;;;;-16.18;54.17;100573.39;1640941;85;21289;-58
2021/01/20 08:08:14;;;;;;;56.33;23.98;;;;;;;-15.95;54.15;100580.08;1676212;85;21205;-57
2021/01/20 08:10:45;;;;;;;50.83;24.30;;;;;;;-15.71;54.04;100579.67;1672247;85;21168;-58
2021/01/20 08:13:14;;;;;;;54.63;24.18;;;;;;;-15.54;53.93;100578.24;1681480;83;21711;-57
2021/01/20 08:15:43;;;;;;;51.40;25.05;;;;;;;-15.28;53.86;100580.32;1683155;85;21204;-56
2021/01/20 08:18:13;;;;;;;55.80;25.68;;;;;;;-15.06;53.69;100581.09;1667409;86;21301;-56
2021/01/20 08:20:42;;;;;;;55.78;26.02;;;;;;;-14.81;53.60;100574.77;1681420;85;21215;-56
2021/01/20 08:23:34;;;;;;;56.73;26.20;;;;;;;-14.53;53.44;100581.00;1669330;85;21607;-56
2021/01/20 08:26:05;;;;;;;46.70;22.60;;;;;;;-14.29;53.09;100581.66;1677259;83;21204;-63
2021/01/20 08:28:34;;;;;;;50.52;22.93;;;;;;;-14.06;52.86;100575.65;1691662;85;21217;-60
2021/01/20 08:31:21;;;;;;;46.75;22.37;;;;;;;-13.91;52.67;100569.93;1673542;84;21783;-56
2021/01/20 08:33:50;;;;;;;45.85;20.90;;;;;;;-13.77;52.58;100580.98;1679159;84;21137;-58
2021/01/20 08:36:24;;;;;;;47.27;20.80;;;;;;;-13.62;52.48;100574.83;1711109;84;21709;-57
2021/01/20 08:39:08;;;;;;;43.65;20.25;;;;;;;-13.49;52.51;100578.70;1708742;83;21180;-59
2021/01/20 08:41:36;;;;;;;41.75;20.08;;;;;;;-13.35;52.51;100583.43;1703398;83;21160;-59
2021/01/20 08:44:17;;;;;;;78.83;28.98;;;;;;;-13.18;52.56;100583.53;1708441;83;21856;-60
2021/01/20 08:46:53;;;;;;;64.42;26.00;;;;;;;-13.03;52.55;100584.92;1704065;83;21670;-59
2021/01/20 08:49:22;;;;;;;67.03;24.92;;;;;;;-12.88;52.67;100582.49;1708246;83;21179;-58
2021/01/20 08:51:57;;;;;;;47.13;20.08;;;;;;;-12.70;52.71;100587.22;1711574;84;21718;-55
2021/01/20 08:54:25;;;;;;;46.70;19.27;;;;;;;-12.63;52.63;100590.19;1668325;84;21218;-58
2021/01/20 08:57:17;;;;;;;53.00;21.60;;;;;;;-12.73;52.93;100590.57;1705585;83;21208;-57
2021/01/20 08:59:56;;;;;;;41.33;19.05;;;;;;;-12.51;53.38;100594.88;1833962;77;22189;-57
2021/01/20 09:02:26;;;;;;;42.80;17.77;;;;;;;-12.43;53.38;100587.77;1788297;80;21611;-58
2021/01/20 09:04:56;;;;;;;37.70;15.03;;;;;;;-12.29;53.42;100579.87;1743643;81;21590;-58
2021/01/20 09:07:26;;;;;;;41.23;17.25;;;;;;;-12.15;53.42;100576.98;1743781;80;21605;-59
2021/01/20 09:09:56;;;;;;;44.25;19.25;;;;;;;-11.99;53.27;100578.69;1757899;80;21320;-59
2021/01/20 09:12:25;;;;;;;55.63;21.52;;;;;;;-11.90;53.15;100574.53;1739399;81;21690;-58
2021/01/20 09:14:55;;;;;;;60.90;22.40;;;;;;;-11.98;53.24;100579.14;1750381;81;21705;-56
2021/01/20 09:17:25;;;;;;;46.85;21.00;;;;;;;-11.94;53.57;100577.45;1727754;81;21562;-57
2021/01/20 09:19:53;;;;;;;36.58;14.73;;;;;;;-11.83;53.77;100572.03;1753220;80;21629;-59
2021/01/20 09:22:23;;;;;;;35.43;14.98;;;;;;;-11.62;53.70;100574.12;1761350;80;21122;-60
2021/01/20 09:24:53;;;;;;;43.68;16.40;;;;;;;-11.57;53.64;100568.67;1759041;81;21158;-60
2021/01/20 09:27:22;;;;;;;48.33;19.82;;;;;;;-11.47;53.75;100564.91;1749053;81;22390;-59
2021/01/20 09:29:51;;;;;;;54.67;20.85;;;;;;;-11.29;53.73;100572.90;1746877;81;21594;-61
2021/01/20 09:32:19;;;;;;;39.15;16.52;;;;;;;-11.11;53.78;100569.95;1751116;80;21174;-59
2021/01/20 09:34:49;;;;;;;37.90;15.70;;;;;;;-10.98;53.59;100567.83;1744963;81;22302;-62
2021/01/20 09:37:18;;;;;;;44.77;17.10;;;;;;;-11.03;53.66;100561.52;1724438;83;21590;-60
2021/01/20 09:39:48;;;;;;;41.80;18.15;;;;;;;-10.96;53.83;100572.02;1730110;83;21550;-58
2021/01/20 09:42:18;;;;;;;43.00;17.32;;;;;;;-10.80;53.84;100570.33;1728241;83;21166;-57
2021/01/20 09:44:49;;;;;;;27.98;12.60;;;;;;;-10.64;53.73;100570.69;1710750;81;21574;-56
2021/01/20 09:47:18;;;;;;;29.05;12.78;;;;;;;-10.69;53.45;100574.06;1711820;84;21605;-60
2021/01/20 09:49:47;;;;;;;63.98;23.40;;;;;;;-10.85;53.55;100569.49;1727907;83;21584;-58
2021/01/20 09:52:18;;;;;;;45.38;15.85;;;;;;;-10.77;53.84;100565.25;1726177;83;21126;-58
2021/01/20 09:54:49;;;;;;;42.58;15.63;;;;;;;-10.63;53.77;100567.31;1714329;84;21214;-59
2021/01/20 09:57:18;;;;;;;33.40;14.50;;;;;;;-10.56;53.72;100567.30;1753588;81;21158;-58
2021/01/20 09:59:47;;;;;;;34.03;14.13;;;;;;;-10.35;53.74;100567.24;1723196;83;21178;-57
2021/01/20 10:02:16;;;;;;;32.20;12.60;;;;;;;-10.20;53.33;100568.82;1755295;80;21554;-58
2021/01/20 10:04:49;;;;;;;47.10;16.37;;;;;;;-10.14;53.37;100562.48;1718987;82;21601;-57
2021/01/20 10:07:20;;;;;;;42.78;16.60;;;;;;;-9.92;53.22;100560.70;1716003;82;21203;-57
2021/01/20 10:09:51;;;;;;;39.83;16.37;;;;;;;-9.71;53.03;100555.48;1734416;80;21174;-57
2021/01/20 10:12:21;;;;;;;34.85;14.70;;;;;;;-9.63;52.48;100563.02;1740548;81;21362;-57
2021/01/20 10:14:52;;;;;;;32.90;15.03;;;;;;;-9.74;52.37;100555.95;1747876;81;21119;-59
2021/01/20 10:17:22;;;;;;;29.75;12.40;;;;;;;-9.80;52.59;100558.93;1748242;82;21680;-58
2021/01/20 10:19:51;;;;;;;34.80;13.00;;;;;;;-9.84;52.68;100554.73;1747273;80;21701;-58
2021/01/20 10:22:21;;;;;;;37.70;17.17;;;;;;;-9.96;52.63;100556.06;1735733;82;21277;-57
2021/01/20 10:24:49;;;;;;;28.52;11.30;;;;;;;-10.04;52.90;100547.27;1718957;82;21606;-57
2021/01/20 10:27:18;;;;;;;29.25;13.22;;;;;;;-9.83;53.19;100539.97;1718324;82;21619;-57
2021/01/20 10:29:46;;;;;;;27.60;12.25;;;;;;;-9.56;53.10;100537.70;1736244;82;21615;-57
2021/01/20 10:32:15;;;;;;;27.60;13.03;;;;;;;-9.35;52.94;100530.78;1756140;80;21697;-57
2021/01/20 10:34:44;;;;;;;31.50;13.95;;;;;;;-9.11;52.80;100539.86;1782879;80;21316;-58
2021/01/20 10:37:12;;;;;;;27.55;12.35;;;;;;;-9.01;52.51;100533.41;1749633;80;21544;-59
2021/01/20 10:39:41;;;;;;;24.45;11.68;;;;;;;-8.86;52.37;100539.19;1744843;82;21785;-58
2021/01/20 10:42:09;;;;;;;26.52;12.95;;;;;;;-8.72;52.01;100529.74;1745305;82;21208;-58
2021/01/20 10:44:38;;;;;;;34.05;15.43;;;;;;;-8.56;51.79;100528.73;1741340;80;22100;-57
2021/01/20 10:47:06;;;;;;;37.83;13.95;;;;;;;-8.48;51.44;100526.09;1733387;82;21298;-57
2021/01/20 10:49:35;;;;;;;35.65;14.68;;;;;;;-8.43;51.32;100528.98;1722923;82;21519;-57
2021/01/20 10:52:05;;;;;;;27.37;11.28;;;;;;;-8.31;51.29;100524.17;1745848;82;21155;-57
2021/01/20 10:54:33;;;;;;;30.57;14.47;;;;;;;-8.14;51.04;100521.39;1741612;81;21167;-58
2021/01/20 10:57:04;;;;;;;26.77;12.23;;;;;;;-8.03;50.79;100512.38;1760960;80;21689;-58
2021/01/20 10:59:41;;;;;;;22.40;10.10;;;;;;;-8.00;50.84;100519.97;1750043;81;21594;-58
2021/01/20 11:02:03;;;;;;;44.77;18.27;;;;;;;-7.89;50.80;100517.69;1748083;81;21621;-57
2021/01/20 11:04:32;;;;;;;26.95;12.47;;;;;;;-7.78;50.31;100509.90;1741429;81;21605;-58
2021/01/20 11:07:00;;;;;;;25.20;11.93;;;;;;;-7.79;50.36;100501.88;1728533;83;21167;-58
2021/01/20 11:09:30;;;;;;;28.07;12.33;;;;;;;-7.79;50.11;100501.05;1750366;80;21646;-58
2021/01/20 11:12:01;;;;;;;27.30;12.63;;;;;;;-7.99;49.91;100505.98;1761390;81;21300;-58
2021/01/20 11:14:32;;;;;;;30.08;13.50;;;;;;;-7.99;50.22;100503.45;1761639;81;21155;-57
2021/01/20 11:17:01;;;;;;;35.75;16.10;;;;;;;-7.96;50.13;100499.59;1780826;80;21577;-57
2021/01/20 11:19:30;;;;;;;28.25;13.03;;;;;;;-7.81;50.26;100498.54;1792493;80;21610;-57
2021/01/20 11:21:58;;;;;;;27.42;12.65;;;;;;;-7.62;50.10;100496.56;1751946;80;21632;-57
2021/01/20 11:24:27;;;;;;;26.55;12.45;;;;;;;-7.46;49.86;100499.67;1745456;81;21677;-58
2021/01/20 11:26:55;;;;;;;33.83;14.35;;;;;;;-7.34;49.54;100496.93;1753426;81;21618;-57
2021/01/20 11:29:26;;;;;;;38.25;16.20;;;;;;;-7.25;49.36;100494.69;1761510;81;21352;-58
2021/01/20 11:31:56;;;;;;;28.52;12.88;;;;;;;-7.35;49.28;100491.45;1761308;81;21143;-58
2021/01/20 11:34:26;;;;;;;30.90;12.90;;;;;;;-7.26;49.27;100487.50;1744673;80;21600;-58
2021/01/20 11:36:54;;;;;;;45.12;21.65;;;;;;;-7.14;48.96;100491.50;1743928;81;21648;-58
2021/01/20 11:39:23;;;;;;;28.38;13.43;;;;;;;-7.21;48.59;100493.75;1749264;80;22212;-58
2021/01/20 11:41:52;;;;;;;31.02;15.03;;;;;;;-7.33;48.73;100497.33;1766441;80;22627;-58
2021/01/20 11:44:23;;;;;;;50.43;22.85;;;;;;;-7.31;48.83;100496.89;1774443;80;21550;-58
2021/01/20 11:46:51;;;;;;;34.10;15.00;;;;;;;-7.28;48.80;100506.15;1792625;80;21614;-61
2021/01/20 11:49:20;;;;;;;39.08;15.40;;;;;;;-7.28;48.84;100504.44;1792820;80;21585;-61
2021/01/20 11:51:49;;;;;;;24.37;12.07;;;;;;;-7.23;48.78;100502.67;1792700;80;21621;-60
2021/01/20 11:54:18;;;;;;;34.88;15.70;;;;;;;-7.17;48.64;100505.54;1766885;80;21283;-58
2021/01/20 11:56:47;;;;;;;34.95;14.85;;;;;;;-7.26;48.72;100503.17;1739444;80;21732;-58
2021/01/20 11:59:18;;;;;;;28.32;12.37;;;;;;;-7.20;48.73;100503.91;1761293;81;21646;-58
2021/01/20 12:01:46;;;;;;;27.73;12.93;;;;;;;-7.18;48.72;100501.33;1761636;81;21565;-58
2021/01/20 12:04:16;;;;;;;23.32;11.00;;;;;;;-7.31;48.58;100499.43;1761281;81;21596;-58
2021/01/20 12:06:44;;;;;;;31.95;14.07;;;;;;;-7.32;48.72;100504.95;1761199;81;21634;-58
2021/01/20 12:09:13;;;;;;;29.15;14.18;;;;;;;-7.32;48.70;100503.67;1742220;81;21636;-58
2021/01/20 12:11:41;;;;;;;27.32;12.80;;;;;;;-7.29;48.77;100511.66;1743919;82;21166;-58
